PROFILE

 METAR AND TAF INFORMATION
ADDS - METARS form results

(0415 UTC 25 April 2019)
http://aviationweather.gov/metar/data/
 
TTCP 250400Z 09006KT 9999 FEW016 27/23 Q1013 NOSIG
TAF TTCP 242200Z 2400/2524 10005KT 9999 SCT016 BECMG 2512/2514 11015KT SCT018 SCT035 PROB30 TEMPO 2515/2519 8000 SHRA SCT014 

 AIRPORT MAP

 RUNWAY INFORMATION
Runway 11 Runway length 9002 ft Runway width 159 ft
Runway elevation 29 ft Runway displaced threshold 1003 ft Runway heading 94
Runway 29 Runway length 9002 ft Runway width 159 ft
Runway elevation 20 ft Runway displaced threshold 0 ft Runway heading 274

 AIRPORT FREQUENCIES
Type APP Name PIARCO APP Frequency 119 MHZ
Type GND Name GND Frequency 121.7 MHZ
Type TWR Name TWR Frequency 118.4 MHZ

 AIRPORT NEAR NAVIGATION AIDS
Type NDB Name Crown Point Frequency 323 KHZ